Time;durP1;ratioP1;P1;durP2;ratioP2;P2;SDS_P1;SDS_P2;PMS_P1;PMS_P2;Temp;Humidity;BMP_temperature;BMP_pressure;BME280_temperature;BME280_humidity;BME280_pressure;Samples;Min_cycle;Max_cycle;Signal;HPM_P1;HPM_P2
2022/07/13 00:00:49;;;;;;;1.50;1.23;;;24.10;91.20;;;;;;6212294;23;20247;-86
2022/07/13 00:03:19;;;;;;;2.03;1.48;;;24.00;91.30;;;;;;6212999;23;20153;-82
2022/07/13 00:05:47;;;;;;;1.60;1.23;;;24.00;91.70;;;;;;6213576;23;20211;-86
2022/07/13 00:08:12;;;;;;;1.48;1.30;;;24.00;91.70;;;;;;6213355;23;20217;-85
2022/07/13 00:10:41;;;;;;;1.40;1.25;;;23.90;91.90;;;;;;6215118;23;20146;-84
2022/07/13 00:13:08;;;;;;;1.40;1.30;;;23.90;92.20;;;;;;6213475;23;20181;-86
2022/07/13 00:15:36;;;;;;;1.85;1.50;;;23.90;92.20;;;;;;6213614;23;20325;-85
2022/07/13 00:18:04;;;;;;;2.42;1.30;;;23.90;92.40;;;;;;6213623;23;20168;-83
2022/07/13 00:20:30;;;;;;;1.40;1.30;;;23.90;92.70;;;;;;6213168;23;20177;-83
2022/07/13 00:23:00;;;;;;;1.83;1.40;;;23.80;92.70;;;;;;6213393;23;20185;-85
2022/07/13 00:25:28;;;;;;;1.65;1.50;;;23.80;92.70;;;;;;6213456;23;20161;-85
2022/07/13 00:27:54;;;;;;;1.65;1.30;;;23.80;93.00;;;;;;6213230;23;20391;-87
2022/07/13 00:30:22;;;;;;;1.77;1.50;;;23.70;92.90;;;;;;6212909;23;20158;-83
2022/07/13 00:32:50;;;;;;;1.50;1.27;;;23.70;93.10;;;;;;6213223;23;20191;-84
2022/07/13 00:35:18;;;;;;;1.85;1.40;;;23.70;93.20;;;;;;6212480;23;20429;-88
2022/07/13 00:37:46;;;;;;;1.75;1.23;;;23.70;93.50;;;;;;6215430;23;20228;-88
2022/07/13 00:40:12;;;;;;;1.98;1.42;;;23.70;93.30;;;;;;6214661;23;20224;-86
2022/07/13 00:42:38;;;;;;;2.20;1.27;;;23.70;93.40;;;;;;6213854;23;20192;-85
2022/07/13 00:45:04;;;;;;;1.55;1.20;;;23.60;93.50;;;;;;6213959;23;20203;-88
2022/07/13 00:47:34;;;;;;;1.65;1.20;;;23.60;93.60;;;;;;6213171;23;20169;-86
2022/07/13 00:50:01;;;;;;;1.75;1.23;;;23.60;93.70;;;;;;6213110;23;20149;-84
2022/07/13 00:52:27;;;;;;;1.65;1.27;;;23.60;93.70;;;;;;6213466;23;20150;-83
2022/07/13 00:54:53;;;;;;;1.15;1.00;;;23.60;93.80;;;;;;6214609;23;20193;-88
2022/07/13 00:57:20;;;;;;;1.38;1.20;;;23.50;93.70;;;;;;6215472;23;20248;-86
2022/07/13 00:59:49;;;;;;;1.30;1.20;;;23.50;93.80;;;;;;6215131;23;20153;-86
2022/07/13 01:02:16;;;;;;;1.33;1.23;;;23.50;94.00;;;;;;6215224;23;20177;-84
2022/07/13 01:04:44;;;;;;;1.15;1.00;;;23.50;94.00;;;;;;6215099;23;20559;-82
2022/07/13 01:07:11;;;;;;;1.75;1.10;;;23.50;94.00;;;;;;6215262;23;20417;-82
2022/07/13 01:09:41;;;;;;;1.30;1.10;;;23.40;94.00;;;;;;6215589;23;20177;-87
2022/07/13 01:12:09;;;;;;;1.90;1.23;;;23.40;94.20;;;;;;6214809;23;20164;-86
2022/07/13 01:14:37;;;;;;;1.55;1.33;;;23.40;94.20;;;;;;6215365;23;20448;-86
2022/07/13 01:17:03;;;;;;;1.30;1.20;;;23.40;94.30;;;;;;6215052;23;20157;-79
2022/07/13 01:19:29;;;;;;;1.40;1.30;;;23.40;94.30;;;;;;6215544;23;20237;-87
2022/07/13 01:21:59;;;;;;;1.35;1.25;;;23.40;94.40;;;;;;6215477;23;20150;-85
2022/07/13 01:24:25;;;;;;;1.42;1.00;;;23.40;94.60;;;;;;6215082;23;20207;-87
2022/07/13 01:26:51;;;;;;;1.48;1.13;;;23.40;94.60;;;;;;6215026;23;20163;-78
2022/07/13 01:29:17;;;;;;;1.40;1.10;;;23.40;94.70;;;;;;6214758;23;20162;-87
2022/07/13 01:31:44;;;;;;;1.38;1.20;;;23.40;94.70;;;;;;6214896;23;20153;-81
2022/07/13 01:34:12;;;;;;;1.30;1.13;;;23.40;94.70;;;;;;6214404;23;20177;-79
2022/07/13 01:36:40;;;;;;;1.33;1.23;;;23.40;95.00;;;;;;6214667;23;20161;-88
2022/07/13 01:39:09;;;;;;;1.33;1.20;;;23.40;95.00;;;;;;6215054;23;20153;-85
2022/07/13 01:41:35;;;;;;;1.42;1.20;;;23.40;95.20;;;;;;6214341;23;20188;-87
2022/07/13 01:44:03;;;;;;;1.33;1.23;;;23.30;95.10;;;;;;6214965;23;20371;-83
2022/07/13 01:46:30;;;;;;;1.30;1.20;;;23.30;95.20;;;;;;6216445;23;20169;-79
2022/07/13 01:48:58;;;;;;;1.20;1.00;;;23.30;95.30;;;;;;6214490;23;20188;-82
2022/07/13 01:51:26;;;;;;;1.20;1.10;;;23.30;95.30;;;;;;6214709;23;20189;-81
2022/07/13 01:53:54;;;;;;;1.20;1.10;;;23.30;95.30;;;;;;6215141;23;20193;-87
2022/07/13 01:56:22;;;;;;;1.30;1.08;;;23.20;95.50;;;;;;6214679;23;20206;-85
2022/07/13 01:58:49;;;;;;;1.23;1.13;;;23.20;95.70;;;;;;6214576;23;20153;-84
2022/07/13 02:01:17;;;;;;;1.60;1.15;;;23.20;95.90;;;;;;6214758;23;20175;-84
2022/07/13 02:03:43;;;;;;;1.30;1.00;;;23.20;96.10;;;;;;6214949;23;20157;-79
2022/07/13 02:06:11;;;;;;;1.42;1.27;;;23.20;96.20;;;;;;6214854;23;20264;-83
2022/07/13 02:08:40;;;;;;;1.25;1.10;;;23.20;96.30;;;;;;6214779;23;20177;-84
2022/07/13 02:11:05;;;;;;;1.30;1.17;;;23.10;96.50;;;;;;6214899;23;20195;-87
2022/07/13 02:13:34;;;;;;;1.40;1.20;;;23.10;96.60;;;;;;6215314;23;20174;-83
2022/07/13 02:15:59;;;;;;;1.17;1.00;;;23.10;96.80;;;;;;6214777;23;20237;-88
2022/07/13 02:18:25;;;;;;;1.55;1.45;;;23.10;96.80;;;;;;6214878;23;20177;-79
2022/07/13 02:20:51;;;;;;;1.25;1.15;;;23.10;96.90;;;;;;6215027;23;20185;-80
2022/07/13 02:23:19;;;;;;;1.42;1.15;;;23.10;97.00;;;;;;6215051;23;20335;-83
2022/07/13 02:25:47;;;;;;;3.38;1.40;;;23.10;97.10;;;;;;6214466;23;20238;-87
2022/07/13 02:28:15;;;;;;;1.40;1.30;;;23.00;97.10;;;;;;6214701;23;20157;-88
2022/07/13 02:30:40;;;;;;;1.73;1.10;;;23.00;97.20;;;;;;6215108;23;20215;-84
2022/07/13 02:33:07;;;;;;;1.40;1.20;;;23.00;97.20;;;;;;6214502;23;20268;-84
2022/07/13 02:35:32;;;;;;;1.92;1.20;;;23.00;97.30;;;;;;6215316;23;20153;-87
2022/07/13 02:37:58;;;;;;;1.33;1.17;;;23.00;97.30;;;;;;6214257;23;20145;-89
2022/07/13 02:40:24;;;;;;;3.17;1.05;;;23.00;97.30;;;;;;6214094;23;20203;-88
2022/07/13 02:42:49;;;;;;;1.13;1.02;;;23.00;97.30;;;;;;6214445;23;20169;-85
2022/07/13 02:45:15;;;;;;;2.17;1.30;;;23.00;97.50;;;;;;6214441;23;20223;-87
2022/07/13 02:47:43;;;;;;;1.30;1.20;;;23.00;97.50;;;;;;6214664;23;20397;-85
2022/07/13 02:50:09;;;;;;;1.58;1.10;;;23.00;97.60;;;;;;6214845;23;20149;-82
2022/07/13 02:52:36;;;;;;;3.05;1.20;;;23.00;97.60;;;;;;6215201;23;20245;-84
2022/07/13 02:55:02;;;;;;;1.65;1.20;;;23.00;97.60;;;;;;6215155;23;20397;-86
2022/07/13 02:57:31;;;;;;;1.30;1.10;;;23.00;97.60;;;;;;6214245;23;20177;-84
2022/07/13 02:59:59;;;;;;;1.50;1.10;;;22.90;97.60;;;;;;6214908;23;20157;-88
2022/07/13 03:02:25;;;;;;;1.67;1.23;;;22.90;97.70;;;;;;6214993;23;20149;-87
2022/07/13 03:04:51;;;;;;;1.20;1.10;;;22.90;97.80;;;;;;6214160;23;20168;-86
2022/07/13 03:07:16;;;;;;;1.20;1.10;;;22.90;98.10;;;;;;6213718;23;20188;-88
2022/07/13 03:09:44;;;;;;;2.30;1.27;;;22.90;97.90;;;;;;6213437;23;20157;-83
2022/07/13 03:12:11;;;;;;;1.13;1.02;;;22.90;98.00;;;;;;6213789;23;20196;-87
2022/07/13 03:14:37;;;;;;;1.40;1.20;;;22.90;98.10;;;;;;6214577;23;20200;-71
2022/07/13 03:17:02;;;;;;;1.60;1.20;;;22.90;98.10;;;;;;6212137;23;20157;-69
2022/07/13 03:19:28;;;;;;;1.20;1.00;;;22.90;98.20;;;;;;6213888;23;20176;-69
2022/07/13 03:21:54;;;;;;;1.98;1.30;;;22.90;98.30;;;;;;6214426;23;20149;-70
2022/07/13 03:24:21;;;;;;;9.02;5.68;;;22.90;98.30;;;;;;6213388;23;20279;-70
2022/07/13 03:26:47;;;;;;;5.05;3.80;;;22.90;98.40;;;;;;6213632;23;20159;-70
2022/07/13 03:29:24;;;;;;;3.40;2.70;;;22.90;98.50;;;;;;6213276;23;20305;-70
2022/07/13 03:31:51;;;;;;;2.45;2.20;;;22.90;98.50;;;;;;6213518;23;20161;-70
2022/07/13 03:34:19;;;;;;;2.22;1.90;;;22.90;98.60;;;;;;6213684;23;20207;-70
2022/07/13 03:36:45;;;;;;;1.58;1.40;;;22.80;98.50;;;;;;6212937;23;20545;-69
2022/07/13 03:39:10;;;;;;;2.53;2.15;;;22.80;98.40;;;;;;6214962;23;20150;-70
2022/07/13 03:41:36;;;;;;;5.90;4.13;;;22.80;98.40;;;;;;6213709;23;20243;-70
2022/07/13 03:44:02;;;;;;;9.65;3.45;;;22.80;98.50;;;;;;6212794;23;20240;-70
2022/07/13 03:46:30;;;;;;;2.20;1.88;;;22.80;98.40;;;;;;6215644;23;20223;-68
2022/07/13 03:48:55;;;;;;;7.50;1.65;;;22.80;98.40;;;;;;6214966;23;20169;-69
2022/07/13 03:51:21;;;;;;;1.60;1.50;;;22.80;98.40;;;;;;6213555;23;20161;-70
2022/07/13 03:53:47;;;;;;;1.63;1.30;;;22.80;98.40;;;;;;6213152;23;20352;-70
2022/07/13 03:56:12;;;;;;;2.92;1.90;;;22.80;98.40;;;;;;6212938;23;20157;-70
2022/07/13 03:58:38;;;;;;;1.80;1.40;;;22.80;98.50;;;;;;6213394;23;20150;-69
2022/07/13 04:01:06;;;;;;;2.00;1.60;;;22.80;98.50;;;;;;6213362;23;20252;-69
2022/07/13 04:03:31;;;;;;;1.30;1.20;;;22.80;98.60;;;;;;6213207;23;20154;-69
2022/07/13 04:05:57;;;;;;;1.85;1.40;;;22.80;98.60;;;;;;6213189;23;20157;-70
2022/07/13 04:08:23;;;;;;;1.42;1.10;;;22.80;98.60;;;;;;6213961;23;20169;-69
2022/07/13 04:10:49;;;;;;;1.58;1.30;;;22.80;98.70;;;;;;6214162;23;20151;-69
2022/07/13 04:13:14;;;;;;;1.20;1.10;;;22.80;98.70;;;;;;6217678;23;20183;-70
2022/07/13 04:15:40;;;;;;;1.40;1.30;;;22.80;98.70;;;;;;6214090;23;20177;-70
2022/07/13 04:18:05;;;;;;;1.48;1.10;;;22.80;98.70;;;;;;6213767;23;20157;-67
2022/07/13 04:20:31;;;;;;;1.30;1.20;;;22.80;98.70;;;;;;6212670;23;20157;-70
2022/07/13 04:22:57;;;;;;;1.25;1.15;;;22.80;98.70;;;;;;6213251;23;20149;-70
2022/07/13 04:25:22;;;;;;;1.33;1.10;;;22.80;98.70;;;;;;6213195;23;20181;-69
2022/07/13 04:27:48;;;;;;;4.43;1.52;;;22.80;98.60;;;;;;6212849;23;20189;-69
2022/07/13 04:30:13;;;;;;;2.60;2.10;;;22.80;98.60;;;;;;6212952;23;20167;-70
2022/07/13 04:32:39;;;;;;;2.30;1.90;;;22.90;98.60;;;;;;6213506;23;20176;-70
2022/07/13 04:35:05;;;;;;;1.98;1.30;;;22.90;98.60;;;;;;6212683;23;20188;-68
2022/07/13 04:37:31;;;;;;;1.15;1.05;;;22.90;98.60;;;;;;6213157;23;20477;-69
2022/07/13 04:39:59;;;;;;;1.40;1.10;;;22.90;98.50;;;;;;6212695;23;20184;-70
2022/07/13 04:42:27;;;;;;;1.85;1.20;;;22.90;98.50;;;;;;6213305;23;20393;-69
2022/07/13 04:44:52;;;;;;;1.80;1.15;;;22.90;98.50;;;;;;6213164;23;20518;-70
2022/07/13 04:47:18;;;;;;;1.40;0.98;;;22.90;98.50;;;;;;6213827;23;20160;-70
2022/07/13 04:49:46;;;;;;;1.58;1.00;;;23.00;98.60;;;;;;6213590;23;20191;-70
2022/07/13 04:52:14;;;;;;;1.30;1.20;;;23.00;98.60;;;;;;6213279;23;20157;-71
2022/07/13 04:54:41;;;;;;;1.45;1.33;;;23.00;98.60;;;;;;6212936;23;20235;-71
2022/07/13 04:57:07;;;;;;;1.48;1.20;;;23.00;98.50;;;;;;6213849;23;20219;-71
2022/07/13 04:59:33;;;;;;;2.65;1.20;;;23.00;98.40;;;;;;6213800;23;20150;-71
2022/07/13 05:01:58;;;;;;;1.58;1.30;;;23.10;98.50;;;;;;6214061;23;20244;-71
2022/07/13 05:04:24;;;;;;;3.05;1.40;;;23.10;98.40;;;;;;6214042;23;20177;-70
2022/07/13 05:06:50;;;;;;;1.35;1.23;;;23.10;98.40;;;;;;6213598;23;20161;-71
2022/07/13 05:09:16;;;;;;;2.92;1.45;;;23.10;98.40;;;;;;6214225;23;20164;-70
2022/07/13 05:11:44;;;;;;;1.63;1.35;;;23.10;98.30;;;;;;6213006;23;20185;-70
2022/07/13 05:14:12;;;;;;;1.40;1.13;;;23.20;98.40;;;;;;6213240;23;20420;-70
2022/07/13 05:16:38;;;;;;;1.65;1.10;;;23.20;98.30;;;;;;6213411;23;20146;-70
2022/07/13 05:19:04;;;;;;;3.08;1.30;;;23.30;98.30;;;;;;6213056;23;20153;-71
2022/07/13 05:21:34;;;;;;;1.75;1.25;;;23.30;98.20;;;;;;6213435;23;20173;-71
2022/07/13 05:24:02;;;;;;;1.75;1.20;;;23.30;98.10;;;;;;6213406;23;20256;-71
2022/07/13 05:26:30;;;;;;;3.15;1.30;;;23.40;98.20;;;;;;6213780;23;20273;-71
2022/07/13 05:28:56;;;;;;;1.65;1.02;;;23.40;98.10;;;;;;6213723;23;20160;-71
2022/07/13 05:31:21;;;;;;;2.40;1.25;;;23.40;98.20;;;;;;6213355;23;20157;-71
2022/07/13 05:33:47;;;;;;;3.38;1.30;;;23.40;98.10;;;;;;6212688;23;20281;-70
2022/07/13 05:36:12;;;;;;;1.50;1.20;;;23.40;98.10;;;;;;6212750;23;20146;-71
2022/07/13 05:38:40;;;;;;;2.90;1.27;;;23.40;98.20;;;;;;6213048;23;20189;-70
2022/07/13 05:41:11;;;;;;;1.50;1.17;;;23.50;98.30;;;;;;6214809;23;20165;-71
2022/07/13 05:43:37;;;;;;;1.80;1.50;;;23.50;98.30;;;;;;6214285;23;20161;-71
2022/07/13 05:46:04;;;;;;;2.05;1.50;;;23.50;98.30;;;;;;6214843;23;20261;-71
2022/07/13 05:48:32;;;;;;;1.77;1.30;;;23.50;98.40;;;;;;6214891;23;20158;-71
2022/07/13 05:51:00;;;;;;;3.50;1.48;;;23.50;98.40;;;;;;6214960;23;20162;-71
2022/07/13 05:53:33;;;;;;;2.33;1.30;;;23.60;98.50;;;;;;6215155;23;20185;-71
2022/07/13 05:55:59;;;;;;;1.75;1.13;;;23.60;98.40;;;;;;6215042;23;20146;-70
2022/07/13 05:58:24;;;;;;;1.40;1.23;;;23.60;98.50;;;;;;6214921;23;20187;-70
2022/07/13 06:00:52;;;;;;;2.10;1.20;;;23.60;98.50;;;;;;6213986;23;20219;-70
2022/07/13 06:03:20;;;;;;;1.50;1.10;;;23.60;98.50;;;;;;6214392;23;20507;-70
2022/07/13 06:05:46;;;;;;;1.98;1.20;;;23.60;98.70;;;;;;6214073;23;20181;-70
2022/07/13 06:08:14;;;;;;;1.48;1.25;;;23.60;98.80;;;;;;6214635;23;20181;-71
2022/07/13 06:10:41;;;;;;;2.00;1.42;;;23.60;98.90;;;;;;6213615;23;20149;-69
2022/07/13 06:13:07;;;;;;;3.15;1.30;;;23.60;98.90;;;;;;6214394;23;20177;-71
2022/07/13 06:15:33;;;;;;;2.67;1.40;;;23.70;99.10;;;;;;6214543;23;20164;-70
2022/07/13 06:18:06;;;;;;;1.90;1.30;;;23.70;99.20;;;;;;6213984;23;20173;-69
2022/07/13 06:20:32;;;;;;;3.42;1.40;;;23.70;99.30;;;;;;6189168;23;20150;-71
2022/07/13 06:23:09;;;;;;;3.47;1.40;;;23.70;99.40;;;;;;6214654;23;20167;-70
2022/07/13 06:25:36;;;;;;;1.23;1.13;;;23.80;99.50;;;;;;6213741;23;20153;-70
2022/07/13 06:28:04;;;;;;;1.50;1.13;;;23.80;99.40;;;;;;6214154;23;20149;-72
2022/07/13 06:30:30;;;;;;;1.75;1.20;;;23.80;99.60;;;;;;6214515;23;20173;-72
2022/07/13 06:32:58;;;;;;;3.47;1.25;;;23.90;99.50;;;;;;6214147;23;20156;-70
2022/07/13 06:35:23;;;;;;;2.20;1.33;;;23.90;99.50;;;;;;6214036;23;20164;-72
2022/07/13 06:37:52;;;;;;;2.10;1.48;;;23.90;99.50;;;;;;6214396;23;20181;-72
2022/07/13 06:40:22;;;;;;;2.92;1.45;;;23.90;99.40;;;;;;6213886;23;20161;-72
2022/07/13 06:42:48;;;;;;;2.92;2.25;;;23.90;99.40;;;;;;6214760;23;20308;-70
2022/07/13 06:45:14;;;;;;;3.30;1.70;;;23.90;99.40;;;;;;6214090;23;20208;-69
2022/07/13 06:47:42;;;;;;;2.10;1.50;;;23.90;99.50;;;;;;6214885;23;20172;-72
2022/07/13 06:50:08;;;;;;;1.60;1.00;;;23.90;99.60;;;;;;6214184;23;20165;-72
2022/07/13 06:52:44;;;;;;;4.20;1.80;;;24.00;99.80;;;;;;6214942;23;20323;-73
2022/07/13 06:55:12;;;;;;;3.15;1.27;;;24.00;99.80;;;;;;6214142;23;20439;-71
2022/07/13 06:57:38;;;;;;;2.97;1.38;;;24.10;99.90;;;;;;6214817;23;20173;-71
2022/07/13 07:00:05;;;;;;;2.80;1.27;;;24.20;99.90;;;;;;6214087;23;20164;-71
2022/07/13 07:02:33;;;;;;;3.08;1.50;;;24.30;99.90;;;;;;6215038;23;20153;-71
2022/07/13 07:04:58;;;;;;;3.40;1.40;;;24.40;99.90;;;;;;6214582;23;20153;-72
2022/07/13 07:07:24;;;;;;;1.85;1.17;;;24.50;99.90;;;;;;6215045;23;20223;-72
2022/07/13 07:09:53;;;;;;;2.05;1.38;;;24.60;99.90;;;;;;6213339;23;20161;-70
2022/07/13 07:12:20;;;;;;;2.85;1.40;;;24.70;99.90;;;;;;6213708;23;20161;-72
2022/07/13 07:14:46;;;;;;;3.53;1.35;;;24.70;99.90;;;;;;6214092;23;20192;-71
2022/07/13 07:17:12;;;;;;;2.40;1.38;;;24.80;99.90;;;;;;6214191;23;20177;-71
2022/07/13 07:19:37;;;;;;;1.90;1.40;;;24.90;99.90;;;;;;6215373;23;20145;-72
2022/07/13 07:22:03;;;;;;;2.05;1.40;;;25.00;99.80;;;;;;6213728;23;20154;-79
2022/07/13 07:24:31;;;;;;;1.88;1.50;;;25.00;99.70;;;;;;6214370;23;20157;-78
2022/07/13 07:26:59;;;;;;;1.73;1.30;;;25.10;99.70;;;;;;6215530;23;20167;-76
2022/07/13 07:29:24;;;;;;;1.90;1.13;;;25.20;99.70;;;;;;6213154;23;20172;-78
2022/07/13 07:31:50;;;;;;;3.28;1.30;;;25.30;99.70;;;;;;6213825;23;20191;-78
2022/07/13 07:34:16;;;;;;;2.95;1.42;;;25.30;99.60;;;;;;6216701;23;20368;-77
2022/07/13 07:36:47;;;;;;;2.42;1.40;;;25.40;99.50;;;;;;6213606;23;20173;-79
2022/07/13 07:39:13;;;;;;;1.70;1.35;;;25.50;99.40;;;;;;6215836;23;20177;-79
2022/07/13 07:41:41;;;;;;;2.47;1.50;;;25.50;99.40;;;;;;6214433;23;20242;-72
2022/07/13 07:44:08;;;;;;;2.20;1.25;;;25.60;99.30;;;;;;6218540;23;20244;-78
2022/07/13 07:46:33;;;;;;;1.50;1.23;;;25.70;99.40;;;;;;6213791;23;20161;-77
2022/07/13 07:48:59;;;;;;;4.53;1.23;;;25.80;99.40;;;;;;6216506;23;20256;-77
2022/07/13 07:51:25;;;;;;;1.60;1.40;;;25.90;99.30;;;;;;6213949;23;20180;-80
2022/07/13 07:53:50;;;;;;;2.17;1.38;;;26.00;99.30;;;;;;6214037;23;20187;-77
2022/07/13 07:56:16;;;;;;;2.15;1.65;;;26.10;99.20;;;;;;6218680;23;20177;-78
2022/07/13 07:58:42;;;;;;;2.05;1.80;;;26.20;99.10;;;;;;6213621;23;20442;-76
2022/07/13 08:01:10;;;;;;;2.60;1.52;;;26.30;99.00;;;;;;6214701;23;20153;-80
2022/07/13 08:03:35;;;;;;;2.10;1.50;;;26.40;98.70;;;;;;6213654;23;20181;-75
2022/07/13 08:06:02;;;;;;;2.00;1.30;;;26.50;98.70;;;;;;6214761;23;20238;-75
2022/07/13 08:08:28;;;;;;;1.75;1.40;;;26.50;98.60;;;;;;6213211;23;20440;-78
2022/07/13 08:10:56;;;;;;;2.13;1.38;;;26.60;98.40;;;;;;6214856;23;20137;-78
2022/07/13 08:13:24;;;;;;;1.50;1.40;;;26.60;98.20;;;;;;6213054;23;20179;-78
2022/07/13 08:15:50;;;;;;;1.70;1.25;;;26.70;98.30;;;;;;6218278;23;20170;-78
2022/07/13 08:18:15;;;;;;;2.13;1.30;;;26.70;98.20;;;;;;6214105;23;20172;-74
2022/07/13 08:20:43;;;;;;;2.78;1.40;;;26.80;98.00;;;;;;6219136;23;20153;-80
2022/07/13 08:26:00;;;;;;;3.08;1.23;;;26.90;98.10;;;;;;6214747;23;20160;-79
2022/07/13 08:28:28;;;;;;;2.30;1.50;;;27.00;97.90;;;;;;6215052;23;20177;-76
2022/07/13 08:30:54;;;;;;;10.25;1.70;;;27.10;98.10;;;;;;6213035;23;20172;-75
2022/07/13 08:38:34;;;;;;;2.00;1.60;;;27.20;98.10;;;;;;6213796;23;20177;-75
2022/07/13 08:38:49;;;;;;;2.55;1.73;;;27.40;98.20;;;;;;6214170;23;20180;-76
2022/07/13 08:41:14;;;;;;;1.60;1.27;;;27.50;98.60;;;;;;6213637;23;20162;-76
2022/07/13 08:43:40;;;;;;;3.28;1.88;;;27.60;98.40;;;;;;6213129;23;20213;-75
2022/07/13 08:46:08;;;;;;;4.65;1.60;;;27.80;98.30;;;;;;6213755;23;20156;-75
2022/07/13 08:48:37;;;;;;;2.20;1.50;;;27.90;98.20;;;;;;6212762;23;20177;-76
2022/07/13 08:51:06;;;;;;;2.63;1.50;;;28.00;98.10;;;;;;6213093;23;20239;-77
2022/07/13 08:53:31;;;;;;;2.58;1.33;;;28.10;98.00;;;;;;6212880;23;20185;-75
2022/07/13 08:55:57;;;;;;;1.85;1.40;;;28.20;97.80;;;;;;6213452;23;20186;-75
2022/07/13 08:58:23;;;;;;;3.10;1.52;;;28.40;97.70;;;;;;6213464;23;20212;-76
2022/07/13 09:00:49;;;;;;;1.65;1.40;;;28.50;97.60;;;;;;6212221;23;20176;-77
2022/07/13 09:06:52;;;;;;;2.03;1.40;;;28.80;96.60;;;;;;6215178;23;20172;-76
2022/07/13 09:09:38;;;;;;;2.47;1.38;;;28.90;96.00;;;;;;6213139;23;20188;-76
2022/07/13 09:12:39;;;;;;;1.40;1.27;;;29.00;96.40;;;;;;6213196;23;20157;-77
2022/07/13 09:15:11;;;;;;;3.75;1.35;;;29.10;95.90;;;;;;6127761;23;20390;-76
2022/07/13 09:17:43;;;;;;;1.83;1.13;;;29.20;96.50;;;;;;6199422;23;20188;-71
2022/07/13 09:20:14;;;;;;;1.83;1.17;;;29.20;96.10;;;;;;6222474;23;20171;-78
2022/07/13 09:22:57;;;;;;;2.42;1.20;;;29.30;96.00;;;;;;6216160;23;20250;-73
2022/07/13 09:25:37;;;;;;;3.15;1.15;;;29.40;94.60;;;;;;6217957;23;20164;-79
2022/07/13 09:28:12;;;;;;;2.97;1.35;;;29.50;93.70;;;;;;6216950;23;20183;-80
2022/07/13 09:30:43;;;;;;;1.40;1.15;;;29.60;93.00;;;;;;6214317;23;20362;-79
2022/07/13 09:33:10;;;;;;;4.03;1.20;;;29.70;91.90;;;;;;6217131;23;20188;-80
2022/07/13 09:35:49;;;;;;;1.63;1.20;;;29.80;91.00;;;;;;6216395;23;20184;-80
2022/07/13 09:38:31;;;;;;;1.55;1.15;;;29.90;89.10;;;;;;6214299;23;20159;-80
2022/07/13 09:41:16;;;;;;;2.75;1.10;;;29.90;87.30;;;;;;6215190;23;20303;-79
2022/07/13 09:47:06;;;;;;;2.50;1.33;;;30.00;84.90;;;;;;6216100;23;20163;-75
2022/07/13 09:49:45;;;;;;;3.28;1.00;;;30.10;84.30;;;;;;6189855;23;20171;-75
2022/07/13 09:52:21;;;;;;;3.38;1.10;;;30.20;83.70;;;;;;6189082;23;20180;-73
2022/07/13 09:54:51;;;;;;;1.17;1.08;;;30.30;84.60;;;;;;6188214;23;20203;-75
2022/07/13 09:57:20;;;;;;;1.23;1.13;;;30.50;85.30;;;;;;6188971;23;20156;-74
2022/07/13 09:59:46;;;;;;;1.35;1.10;;;30.60;82.50;;;;;;6189825;23;20172;-73
2022/07/13 10:02:16;;;;;;;1.88;1.42;;;30.80;79.50;;;;;;6189365;23;20179;-73
2022/07/13 10:04:46;;;;;;;3.05;1.35;;;31.00;78.00;;;;;;6190228;23;20262;-74
2022/07/13 10:07:13;;;;;;;3.53;1.30;;;31.20;77.50;;;;;;6189822;23;20219;-72
2022/07/13 10:09:41;;;;;;;5.38;1.30;;;31.30;75.00;;;;;;6189698;23;20252;-73
2022/07/13 10:12:08;;;;;;;1.30;1.10;;;31.40;72.30;;;;;;6189389;23;20153;-73
2022/07/13 10:14:34;;;;;;;1.65;1.25;;;31.40;71.00;;;;;;6190019;23;20204;-72
2022/07/13 10:17:06;;;;;;;1.92;1.35;;;31.40;69.30;;;;;;6189283;23;20409;-72
2022/07/13 10:19:40;;;;;;;1.63;1.20;;;31.40;68.90;;;;;;6189075;23;20180;-72
2022/07/13 10:22:12;;;;;;;3.55;1.30;;;31.40;69.70;;;;;;6189896;23;20231;-72
2022/07/13 10:24:49;;;;;;;1.13;0.90;;;31.50;69.70;;;;;;6189302;23;20163;-73
2022/07/13 10:27:33;;;;;;;1.75;1.20;;;31.50;69.00;;;;;;6189027;23;20224;-74
2022/07/13 10:30:05;;;;;;;2.17;1.27;;;31.50;66.90;;;;;;6188948;23;20153;-69
2022/07/13 10:32:34;;;;;;;2.00;1.50;;;31.50;67.80;;;;;;6189616;23;20157;-75
2022/07/13 10:35:02;;;;;;;2.08;1.30;;;31.60;67.40;;;;;;6188863;23;20267;-73
2022/07/13 10:38:00;;;;;;;3.22;1.38;;;31.70;66.30;;;;;;6188568;23;20196;-74
2022/07/13 10:40:27;;;;;;;2.25;1.05;;;31.80;65.50;;;;;;6189564;23;20157;-74
2022/07/13 10:42:54;;;;;;;1.55;1.00;;;31.90;67.60;;;;;;6212640;23;20177;-71
2022/07/13 10:45:42;;;;;;;1.75;1.02;;;32.10;67.80;;;;;;6214176;23;20251;-71
2022/07/13 10:48:18;;;;;;;3.22;1.38;;;32.30;67.00;;;;;;6214718;23;20229;-76
2022/07/13 10:50:44;;;;;;;2.58;1.00;;;32.50;64.20;;;;;;6214155;23;20152;-75
2022/07/13 10:53:13;;;;;;;1.10;0.90;;;32.70;67.20;;;;;;6213102;23;20149;-76
2022/07/13 10:55:51;;;;;;;2.33;1.23;;;32.90;67.00;;;;;;6213781;23;20481;-74
2022/07/13 10:58:33;;;;;;;1.92;1.30;;;33.10;58.10;;;;;;6214494;23;20136;-73
2022/07/13 11:01:00;;;;;;;5.32;1.30;;;33.30;59.20;;;;;;6214786;23;20156;-76
2022/07/13 11:03:43;;;;;;;1.48;1.10;;;33.50;61.80;;;;;;6214613;23;20207;-75
2022/07/13 11:06:20;;;;;;;2.58;1.50;;;33.70;60.80;;;;;;6221193;23;20179;-71
2022/07/13 11:09:06;;;;;;;1.60;1.25;;;33.80;59.30;;;;;;6219479;23;20203;-75
2022/07/13 11:11:32;;;;;;;1.92;1.20;;;34.00;60.10;;;;;;6217675;23;20178;-74
2022/07/13 11:13:58;;;;;;;1.20;1.10;;;34.10;60.80;;;;;;6214315;23;20288;-76
2022/07/13 11:16:49;;;;;;;1.55;1.23;;;34.20;60.60;;;;;;6213924;23;20145;-82
2022/07/13 11:19:17;;;;;;;1.52;1.30;;;34.40;59.10;;;;;;6214898;23;20180;-68
2022/07/13 11:22:11;;;;;;;3.05;1.30;;;34.40;58.40;;;;;;6218182;23;20141;-77
2022/07/13 11:27:43;;;;;;;1.52;1.10;;;34.50;56.90;;;;;;6215086;23;20163;-74
2022/07/13 11:30:13;;;;;;;1.77;1.40;;;34.60;56.40;;;;;;6213496;23;20167;-75
2022/07/13 11:32:39;;;;;;;1.92;1.30;;;34.60;56.90;;;;;;6213737;23;20423;-72
2022/07/13 11:35:05;;;;;;;2.55;1.30;;;34.70;57.40;;;;;;6213152;23;20247;-77
2022/07/13 11:37:31;;;;;;;1.67;1.30;;;34.80;57.20;;;;;;6213207;23;20153;-78
2022/07/13 11:39:57;;;;;;;2.00;1.50;;;34.90;56.30;;;;;;6213033;23;20225;-74
2022/07/13 11:42:25;;;;;;;2.40;1.30;;;35.00;56.80;;;;;;6212392;23;20179;-76
2022/07/13 11:44:53;;;;;;;3.45;1.30;;;35.10;56.10;;;;;;6214331;23;20179;-82
2022/07/13 11:47:19;;;;;;;1.67;1.10;;;35.20;55.20;;;;;;6213712;23;20164;-73
2022/07/13 11:49:47;;;;;;;1.58;1.35;;;35.20;55.10;;;;;;6215134;23;20157;-77
2022/07/13 11:52:26;;;;;;;2.08;1.23;;;35.20;54.60;;;;;;6213743;23;20268;-79
2022/07/13 11:54:59;;;;;;;1.30;1.10;;;35.20;53.30;;;;;;6214640;23;20252;-77
2022/07/13 11:57:31;;;;;;;1.58;1.33;;;35.20;53.40;;;;;;6216252;23;20156;-79
2022/07/13 12:00:06;;;;;;;2.47;1.27;;;35.20;53.40;;;;;;6215014;23;20238;-79
2022/07/13 12:02:36;;;;;;;1.65;1.40;;;35.10;52.60;;;;;;6213588;23;20209;-79
2022/07/13 12:05:03;;;;;;;3.78;1.60;;;35.10;52.60;;;;;;6214932;23;20185;-77
2022/07/13 12:07:29;;;;;;;3.38;1.50;;;35.00;51.50;;;;;;6213689;23;20152;-81
2022/07/13 12:09:56;;;;;;;4.05;1.17;;;34.90;51.60;;;;;;6217477;23;20157;-82
2022/07/13 12:12:36;;;;;;;2.40;1.50;;;34.70;51.80;;;;;;6213136;23;20419;-81
2022/07/13 12:15:07;;;;;;;1.92;1.15;;;34.70;50.70;;;;;;6213416;23;20177;-79
2022/07/13 12:17:53;;;;;;;2.53;1.20;;;34.60;51.70;;;;;;6214784;23;20145;-74
2022/07/13 12:20:25;;;;;;;1.70;1.30;;;34.50;50.10;;;;;;6216358;23;20149;-81
2022/07/13 12:22:53;;;;;;;2.17;1.30;;;34.40;51.60;;;;;;6214462;23;20144;-80
2022/07/13 12:25:26;;;;;;;2.45;1.50;;;34.40;52.30;;;;;;6213122;23;20152;-79
2022/07/13 12:27:52;;;;;;;2.08;1.45;;;34.40;51.60;;;;;;6213832;23;20191;-80
2022/07/13 12:30:21;;;;;;;5.18;1.70;;;34.40;52.50;;;;;;6213488;23;20165;-76
2022/07/13 12:33:03;;;;;;;5.45;1.73;;;34.40;51.40;;;;;;6215275;23;20423;-77
2022/07/13 12:35:52;;;;;;;4.18;1.50;;;34.40;51.40;;;;;;6214425;23;20598;-79
2022/07/13 12:38:18;;;;;;;3.03;1.73;;;34.30;52.60;;;;;;6211266;23;20149;-78
2022/07/13 12:40:54;;;;;;;3.40;1.50;;;34.30;52.90;;;;;;6212716;23;20200;-73
2022/07/13 12:43:26;;;;;;;2.65;1.50;;;34.40;52.50;;;;;;6214906;23;20145;-72
2022/07/13 12:45:57;;;;;;;4.50;1.50;;;34.40;52.30;;;;;;6188303;23;20160;-74
2022/07/13 12:48:25;;;;;;;3.55;1.38;;;34.50;52.60;;;;;;6187517;23;20191;-80
2022/07/13 12:51:13;;;;;;;1.65;1.38;;;34.70;52.90;;;;;;6189668;23;20180;-77
2022/07/13 12:53:48;;;;;;;2.63;1.50;;;34.80;52.50;;;;;;6189712;23;20286;-79
2022/07/13 12:56:15;;;;;;;4.80;1.60;;;35.00;51.10;;;;;;6189991;23;20276;-78
2022/07/13 12:58:44;;;;;;;1.33;1.23;;;35.10;52.50;;;;;;6189956;23;20235;-76
2022/07/13 13:01:10;;;;;;;4.03;1.48;;;35.20;51.60;;;;;;6190232;23;20198;-77
2022/07/13 13:03:37;;;;;;;2.63;1.60;;;35.20;50.90;;;;;;6189703;23;20172;-78
2022/07/13 13:06:05;;;;;;;2.08;1.30;;;35.20;50.90;;;;;;6190311;23;20379;-76
2022/07/13 13:08:31;;;;;;;1.67;1.48;;;35.20;50.90;;;;;;6189402;23;20160;-74
2022/07/13 13:10:57;;;;;;;2.28;1.30;;;35.10;50.80;;;;;;6190302;23;20250;-77